Time,TemperatureF,DewpointF,PressureIn,WindDirection,WindDirectionDegrees,WindSpeedMPH,WindSpeedGustMPH,Humidity,HourlyPrecipIn,Conditions,Clouds,dailyrainin,SoftwareType,DateUTC
2013-02-23 00:00:00,76.0,75.0,30.05,SE,140,21.0,23.0,95,-99.99,,,-99.99,,2013-02-23 05:00:00,
2013-02-23 00:22:00,76.0,75.0,30.05,SE,140,21.0,23.0,95,-99.99,,,-99.99,,2013-02-23 05:22:00,
2013-02-23 00:32:00,76.0,75.0,30.05,SE,140,21.0,23.0,95,-99.99,,,-99.99,,2013-02-23 05:32:00,
2013-02-23 00:41:00,76.0,75.0,30.05,SE,140,21.0,23.0,95,-99.99,,,-99.99,,2013-02-23 05:41:00,
2013-02-23 00:51:00,76.0,75.0,30.05,SE,140,21.0,23.0,95,-99.99,,,-99.99,,2013-02-23 05:51:00,
2013-02-23 01:00:00,76.0,74.0,30.03,SE,140,25.0,26.0,94,-99.99,,,-99.99,,2013-02-23 06:00:00,
2013-02-23 01:21:00,76.0,74.0,30.03,SE,140,25.0,26.0,94,-99.99,,,-99.99,,2013-02-23 06:21:00,
2013-02-23 01:31:00,76.0,74.0,30.03,SE,140,25.0,26.0,94,-99.99,,,-99.99,,2013-02-23 06:31:00,
2013-02-23 01:41:00,76.0,74.0,30.03,SE,140,25.0,26.0,94,-99.99,,,-99.99,,2013-02-23 06:41:00,
2013-02-23 01:51:00,76.0,74.0,30.03,SE,140,25.0,26.0,94,-99.99,,,-99.99,,2013-02-23 06:51:00,
2013-02-23 02:00:00,76.0,74.0,30.01,SSE,150,23.0,24.0,94,-99.99,,,-99.99,,2013-02-23 07:00:00,
2013-02-23 02:21:00,76.0,74.0,30.01,SSE,150,23.0,24.0,94,-99.99,,,-99.99,,2013-02-23 07:21:00,
2013-02-23 02:31:00,76.0,74.0,30.01,SSE,150,23.0,24.0,94,-99.99,,,-99.99,,2013-02-23 07:31:00,
2013-02-23 02:41:00,76.0,74.0,30.01,SSE,150,23.0,24.0,94,-99.99,,,-99.99,,2013-02-23 07:41:00,
2013-02-23 02:51:00,76.0,74.0,30.01,SSE,150,23.0,24.0,94,-99.99,,,-99.99,,2013-02-23 07:51:00,
2013-02-23 03:00:00,76.0,74.0,29.99,SSE,150,24.0,26.0,94,-99.99,,,-99.99,,2013-02-23 08:00:00,
2013-02-23 03:21:00,76.0,74.0,29.99,SSE,150,24.0,26.0,94,-99.99,,,-99.99,,2013-02-23 08:21:00,
2013-02-23 03:31:00,76.0,74.0,29.99,SSE,150,24.0,26.0,94,-99.99,,,-99.99,,2013-02-23 08:31:00,
2013-02-23 03:41:00,76.0,74.0,29.99,SSE,150,24.0,26.0,94,-99.99,,,-99.99,,2013-02-23 08:41:00,
2013-02-23 03:52:00,76.0,74.0,29.99,SSE,150,24.0,26.0,94,-99.99,,,-99.99,,2013-02-23 08:52:00,
2013-02-23 04:00:00,76.0,75.0,29.99,SSE,150,21.0,23.0,95,-99.99,,,-99.99,,2013-02-23 09:00:00,
2013-02-23 04:21:00,76.0,75.0,29.99,SSE,150,21.0,23.0,95,-99.99,,,-99.99,,2013-02-23 09:21:00,
2013-02-23 04:31:00,76.0,75.0,29.99,SSE,150,21.0,23.0,95,-99.99,,,-99.99,,2013-02-23 09:31:00,
2013-02-23 04:41:00,76.0,75.0,29.99,SSE,150,21.0,23.0,95,-99.99,,,-99.99,,2013-02-23 09:41:00,
2013-02-23 04:51:00,76.0,75.0,29.99,SSE,150,21.0,23.0,95,-99.99,,,-99.99,,2013-02-23 09:51:00,
2013-02-23 05:00:00,76.0,74.0,29.98,SSE,150,21.0,22.0,94,-99.99,,,-99.99,,2013-02-23 10:00:00,
2013-02-23 05:21:00,76.0,74.0,29.98,SSE,150,21.0,22.0,94,-99.99,,,-99.99,,2013-02-23 10:21:00,
2013-02-23 05:31:00,76.0,74.0,29.98,SSE,150,21.0,22.0,94,-99.99,,,-99.99,,2013-02-23 10:31:00,
2013-02-23 05:41:00,76.0,74.0,29.98,SSE,150,21.0,22.0,94,-99.99,,,-99.99,,2013-02-23 10:41:00,
2013-02-23 05:51:00,76.0,74.0,29.98,SSE,150,21.0,22.0,94,-99.99,,,-99.99,,2013-02-23 10:51:00,
2013-02-23 06:00:00,76.0,75.0,29.99,SE,140,22.0,22.0,97,-99.99,,,-99.99,,2013-02-23 11:00:00,
2013-02-23 06:21:00,76.0,75.0,29.99,SE,140,22.0,22.0,97,-99.99,,,-99.99,,2013-02-23 11:21:00,
2013-02-23 06:32:00,76.0,75.0,29.99,SE,140,22.0,22.0,97,-99.99,,,-99.99,,2013-02-23 11:32:00,
2013-02-23 06:41:00,76.0,75.0,29.99,SE,140,22.0,22.0,97,-99.99,,,-99.99,,2013-02-23 11:41:00,
2013-02-23 06:52:00,76.0,75.0,29.99,SE,140,22.0,22.0,97,-99.99,,,-99.99,,2013-02-23 11:52:00,
2013-02-23 07:00:00,76.0,75.0,29.99,SE,140,22.0,23.0,98,-99.99,,,-99.99,,2013-02-23 12:00:00,
2013-02-23 07:21:00,76.0,75.0,29.99,SE,140,22.0,23.0,98,-99.99,,,-99.99,,2013-02-23 12:21:00,
2013-02-23 07:32:00,76.0,75.0,29.99,SE,140,22.0,23.0,98,-99.99,,,-99.99,,2013-02-23 12:32:00,
2013-02-23 07:41:00,76.0,75.0,29.99,SE,140,22.0,23.0,98,-99.99,,,-99.99,,2013-02-23 12:41:00,
2013-02-23 07:52:00,76.0,75.0,29.99,SE,140,22.0,23.0,98,-99.99,,,-99.99,,2013-02-23 12:52:00,
2013-02-23 08:00:00,76.0,76.0,30.01,SE,140,21.0,22.0,98,-99.99,,,-99.99,,2013-02-23 13:00:00,
2013-02-23 08:22:00,76.0,76.0,30.01,SE,140,21.0,22.0,98,-99.99,,,-99.99,,2013-02-23 13:22:00,
2013-02-23 08:31:00,76.0,76.0,30.01,SE,140,21.0,22.0,98,-99.99,,,-99.99,,2013-02-23 13:31:00,
2013-02-23 08:41:00,76.0,76.0,30.01,SE,140,21.0,22.0,98,-99.99,,,-99.99,,2013-02-23 13:41:00,
2013-02-23 08:51:00,76.0,76.0,30.01,SE,140,21.0,22.0,98,-99.99,,,-99.99,,2013-02-23 13:51:00,
2013-02-23 09:00:00,77.0,76.0,30.02,SE,140,20.0,22.0,98,-99.99,,,-99.99,,2013-02-23 14:00:00,
2013-02-23 09:21:00,77.0,76.0,30.02,SE,140,20.0,22.0,98,-99.99,,,-99.99,,2013-02-23 14:21:00,
2013-02-23 09:32:00,77.0,76.0,30.02,SE,140,20.0,22.0,98,-99.99,,,-99.99,,2013-02-23 14:32:00,
2013-02-23 09:41:00,77.0,76.0,30.02,SE,140,20.0,22.0,98,-99.99,,,-99.99,,2013-02-23 14:41:00,
2013-02-23 09:52:00,77.0,76.0,30.02,SE,140,20.0,22.0,98,-99.99,,,-99.99,,2013-02-23 14:52:00,
2013-02-23 10:00:00,77.0,77.0,30.03,SE,140,17.0,20.0,98,-99.99,,,-99.99,,2013-02-23 15:00:00,
2013-02-23 10:21:00,77.0,77.0,30.03,SE,140,17.0,20.0,98,-99.99,,,-99.99,,2013-02-23 15:21:00,
2013-02-23 10:31:00,77.0,77.0,30.03,SE,140,17.0,20.0,98,-99.99,,,-99.99,,2013-02-23 15:31:00,
2013-02-23 10:41:00,77.0,77.0,30.03,SE,140,17.0,20.0,98,-99.99,,,-99.99,,2013-02-23 15:41:00,
2013-02-23 10:51:00,77.0,77.0,30.03,SE,140,17.0,20.0,98,-99.99,,,-99.99,,2013-02-23 15:51:00,
2013-02-23 11:00:00,78.0,76.0,30.03,South,170,18.0,20.0,95,-99.99,,,-99.99,,2013-02-23 16:00:00,
2013-02-23 11:21:00,78.0,76.0,30.03,South,170,18.0,20.0,95,-99.99,,,-99.99,,2013-02-23 16:21:00,
2013-02-23 11:31:00,78.0,76.0,30.03,South,170,18.0,20.0,95,-99.99,,,-99.99,,2013-02-23 16:31:00,
2013-02-23 11:42:00,78.0,76.0,30.03,South,170,18.0,20.0,95,-99.99,,,-99.99,,2013-02-23 16:42:00,
2013-02-23 11:51:00,78.0,76.0,30.03,South,170,18.0,20.0,95,-99.99,,,-99.99,,2013-02-23 16:51:00,
2013-02-23 12:00:00,78.0,76.0,30.02,South,180,16.0,18.0,93,-99.99,,,-99.99,,2013-02-23 17:00:00,
2013-02-23 12:21:00,78.0,76.0,30.02,South,180,16.0,18.0,93,-99.99,,,-99.99,,2013-02-23 17:21:00,
2013-02-23 12:31:00,78.0,76.0,30.02,South,180,16.0,18.0,93,-99.99,,,-99.99,,2013-02-23 17:31:00,
2013-02-23 12:41:00,78.0,76.0,30.02,South,180,16.0,18.0,93,-99.99,,,-99.99,,2013-02-23 17:41:00,
2013-02-23 12:52:00,78.0,76.0,30.02,South,180,16.0,18.0,93,-99.99,,,-99.99,,2013-02-23 17:52:00,
2013-02-23 13:00:00,78.0,75.0,30.00,South,170,17.0,18.0,90,-99.99,,,-99.99,,2013-02-23 18:00:00,
2013-02-23 13:21:00,78.0,75.0,30.00,South,170,17.0,18.0,90,-99.99,,,-99.99,,2013-02-23 18:21:00,
2013-02-23 13:31:00,78.0,75.0,30.00,South,170,17.0,18.0,90,-99.99,,,-99.99,,2013-02-23 18:31:00,
2013-02-23 13:41:00,78.0,75.0,30.00,South,170,17.0,18.0,90,-99.99,,,-99.99,,2013-02-23 18:41:00,
2013-02-23 13:51:00,78.0,75.0,30.00,South,170,17.0,18.0,90,-99.99,,,-99.99,,2013-02-23 18:51:00,
2013-02-23 14:00:00,78.0,76.0,29.98,South,170,17.0,18.0,94,-99.99,,,-99.99,,2013-02-23 19:00:00,
2013-02-23 14:21:00,78.0,76.0,29.98,South,170,17.0,18.0,94,-99.99,,,-99.99,,2013-02-23 19:21:00,
2013-02-23 14:32:00,78.0,76.0,29.98,South,170,17.0,18.0,94,-99.99,,,-99.99,,2013-02-23 19:32:00,
2013-02-23 14:41:00,78.0,76.0,29.98,South,170,17.0,18.0,94,-99.99,,,-99.99,,2013-02-23 19:41:00,
2013-02-23 14:51:00,78.0,76.0,29.98,South,170,17.0,18.0,94,-99.99,,,-99.99,,2013-02-23 19:51:00,
2013-02-23 15:00:00,79.0,77.0,29.97,South,180,14.0,15.0,93,-99.99,,,-99.99,,2013-02-23 20:00:00,
2013-02-23 15:21:00,79.0,77.0,29.97,South,180,14.0,15.0,93,-99.99,,,-99.99,,2013-02-23 20:21:00,
2013-02-23 15:31:00,79.0,77.0,29.97,South,180,14.0,15.0,93,-99.99,,,-99.99,,2013-02-23 20:31:00,
2013-02-23 15:41:00,79.0,77.0,29.97,South,180,14.0,15.0,93,-99.99,,,-99.99,,2013-02-23 20:41:00,
2013-02-23 15:52:00,79.0,77.0,29.97,South,180,14.0,15.0,93,-99.99,,,-99.99,,2013-02-23 20:52:00,
2013-02-23 16:00:00,79.0,78.0,29.96,South,170,11.0,11.0,95,-99.99,,,-99.99,,2013-02-23 21:00:00,
2013-02-23 16:21:00,79.0,78.0,29.96,South,170,11.0,11.0,95,-99.99,,,-99.99,,2013-02-23 21:21:00,
2013-02-23 16:31:00,79.0,78.0,29.96,South,170,11.0,11.0,95,-99.99,,,-99.99,,2013-02-23 21:31:00,
2013-02-23 16:41:00,79.0,78.0,29.96,South,170,11.0,11.0,95,-99.99,,,-99.99,,2013-02-23 21:41:00,
2013-02-23 16:51:00,79.0,78.0,29.96,South,170,11.0,11.0,95,-99.99,,,-99.99,,2013-02-23 21:51:00,
2013-02-23 17:00:00,81.0,78.0,29.96,South,170,5.0,6.0,92,-99.99,,,-99.99,,2013-02-23 22:00:00,
2013-02-23 17:21:00,81.0,78.0,29.96,South,170,5.0,6.0,92,-99.99,,,-99.99,,2013-02-23 22:21:00,
2013-02-23 17:31:00,81.0,78.0,29.96,South,170,5.0,6.0,92,-99.99,,,-99.99,,2013-02-23 22:31:00,
2013-02-23 17:41:00,81.0,78.0,29.96,South,170,5.0,6.0,92,-99.99,,,-99.99,,2013-02-23 22:41:00,
2013-02-23 17:51:00,81.0,78.0,29.96,South,170,5.0,6.0,92,-99.99,,,-99.99,,2013-02-23 22:51:00,
2013-02-23 18:00:00,78.0,77.0,29.96,North,0,0.0,1.0,98,-99.99,,,-99.99,,2013-02-23 23:00:00,
2013-02-23 18:21:00,78.0,77.0,29.96,North,0,0.0,1.0,98,-99.99,,,-99.99,,2013-02-23 23:21:00,
2013-02-23 18:31:00,78.0,77.0,29.96,North,0,0.0,1.0,98,-99.99,,,-99.99,,2013-02-23 23:31:00,
2013-02-23 18:41:00,78.0,77.0,29.96,North,0,0.0,1.0,98,-99.99,,,-99.99,,2013-02-23 23:41:00,
2013-02-23 18:51:00,78.0,77.0,29.96,North,0,0.0,1.0,98,-99.99,,,-99.99,,2013-02-23 23:51:00,
2013-02-23 19:00:00,76.0,76.0,29.96,East,100,6.0,6.0,98,-99.99,,,-99.99,,2013-02-24 00:00:00,
2013-02-23 19:21:00,76.0,76.0,29.96,East,100,6.0,6.0,98,-99.99,,,-99.99,,2013-02-24 00:21:00,
2013-02-23 19:31:00,76.0,76.0,29.96,East,100,6.0,6.0,98,-99.99,,,-99.99,,2013-02-24 00:31:00,
2013-02-23 19:42:00,76.0,76.0,29.96,East,100,6.0,6.0,98,-99.99,,,-99.99,,2013-02-24 00:42:00,
2013-02-23 19:51:00,76.0,76.0,29.96,East,100,6.0,6.0,98,-99.99,,,-99.99,,2013-02-24 00:51:00,
2013-02-23 20:00:00,76.0,76.0,29.98,ESE,110,6.0,6.0,98,-99.99,,,-99.99,,2013-02-24 01:00:00,
2013-02-23 20:21:00,76.0,76.0,29.98,ESE,110,6.0,6.0,98,-99.99,,,-99.99,,2013-02-24 01:21:00,
2013-02-23 20:31:00,76.0,76.0,29.98,ESE,110,6.0,6.0,98,-99.99,,,-99.99,,2013-02-24 01:31:00,
2013-02-23 20:41:00,76.0,76.0,29.98,ESE,110,6.0,6.0,98,-99.99,,,-99.99,,2013-02-24 01:41:00,
2013-02-23 20:51:00,76.0,76.0,29.98,ESE,110,6.0,6.0,98,-99.99,,,-99.99,,2013-02-24 01:51:00,
2013-02-23 21:00:00,76.0,76.0,30.00,SE,130,6.0,6.0,99,-99.99,,,-99.99,,2013-02-24 02:00:00,
2013-02-23 21:21:00,76.0,76.0,30.00,SE,130,6.0,6.0,99,-99.99,,,-99.99,,2013-02-24 02:21:00,
2013-02-23 21:31:00,76.0,76.0,30.00,SE,130,6.0,6.0,99,-99.99,,,-99.99,,2013-02-24 02:31:00,
2013-02-23 21:41:00,76.0,76.0,30.00,SE,130,6.0,6.0,99,-99.99,,,-99.99,,2013-02-24 02:41:00,
2013-02-23 21:51:00,76.0,76.0,30.00,SE,130,6.0,6.0,99,-99.99,,,-99.99,,2013-02-24 02:51:00,
2013-02-23 22:00:00,76.0,75.0,30.01,SE,140,7.0,8.0,98,-99.99,,,-99.99,,2013-02-24 03:00:00,
2013-02-23 22:21:00,76.0,75.0,30.01,SE,140,7.0,8.0,98,-99.99,,,-99.99,,2013-02-24 03:21:00,
2013-02-23 22:31:00,76.0,75.0,30.01,SE,140,7.0,8.0,98,-99.99,,,-99.99,,2013-02-24 03:31:00,
2013-02-23 22:42:00,76.0,75.0,30.01,SE,140,7.0,8.0,98,-99.99,,,-99.99,,2013-02-24 03:42:00,
2013-02-23 22:52:00,76.0,75.0,30.01,SE,140,7.0,8.0,98,-99.99,,,-99.99,,2013-02-24 03:52:00,
2013-02-23 23:00:00,76.0,76.0,30.00,SSE,160,10.0,10.0,98,-99.99,,,-99.99,,2013-02-24 04:00:00,
2013-02-23 23:21:00,76.0,76.0,30.00,SSE,160,10.0,10.0,98,-99.99,,,-99.99,,2013-02-24 04:21:00,
2013-02-23 23:31:00,76.0,76.0,30.00,SSE,160,10.0,10.0,98,-99.99,,,-99.99,,2013-02-24 04:31:00,
2013-02-23 23:41:00,76.0,76.0,30.00,SSE,160,10.0,10.0,98,-99.99,,,-99.99,,2013-02-24 04:41:00,
2013-02-23 23:51:00,76.0,76.0,30.00,SSE,160,10.0,10.0,98,-99.99,,,-99.99,,2013-02-24 04:51:00,